UMMS/MSQ METAR and TAF weather

Enter ICAO airport designator
Station Type Date Time Source
UMMS METAR 2019/12/14 17:00 UTC NOAA

UMMS 141700Z 13007G10MPS 5000 -DZ BR OVC005 01/00 Q1002 R88/610246 NOSIG RMK QBB160


Station Type Date Time Source
UMMS Decoded METAR 2019/12/14 17:00 UTC NOAA

Minsk, Belarus (UMMS) 53-56N 027-38E 231M
Dec 14, 2019 - 12:00 PM EST / 2019.12.14 1700 UTC
Wind: from the SE (130 degrees) at 16 MPH (14 KT) gusting to 22 MPH (19 KT):0
Visibility: 3 mile(s):0
Sky conditions: overcast
Weather: light drizzle; mist
Temperature: 33 F (1 C)
Windchill: 23 F (-5 C):1
Dew Point: 32 F (0 C)
Relative Humidity: 93%
Pressure (altimeter): 29.59 in. Hg (1002 hPa)
ob: UMMS 141700Z 13007G10MPS 5000 -DZ BR OVC005 01/00 Q1002 R88/610246 NOSIG RMK QBB160
cycle: 17

Station Type Date Time Source
UMMS TAF 2019/12/14 18:24 UTC NOAA

TAF UMMS 141706Z 1418/1518 14005G10MPS 2100 -DZ BR OVC003
TEMPO 1418/1508 22005G10MPS 0800 SHRA FG OVC002 BKN010CB
BECMG 1508/1509 24007G12MPS

Example: see airport list